sensor_id;sensor_type;location;lat;lon;timestamp;temperature;humidity
9265;DHT22;4669;49.594;10.958;2023-05-16T04:30:40;13.10;99.90
9265;DHT22;4669;49.594;10.958;2023-05-16T04:35:42;13.10;99.90
9265;DHT22;4669;49.594;10.958;2023-05-16T04:40:44;12.80;99.90
9265;DHT22;4669;49.594;10.958;2023-05-16T04:45:47;12.70;99.90
9265;DHT22;4669;49.594;10.958;2023-05-16T04:50:50;12.80;99.90
9265;DHT22;4669;49.594;10.958;2023-05-16T04:55:52;12.90;99.90
9265;DHT22;4669;49.594;10.958;2023-05-16T05:00:55;12.90;99.90
9265;DHT22;4669;49.594;10.958;2023-05-16T05:05:58;13.00;99.90
9265;DHT22;4669;49.594;10.958;2023-05-16T05:11:00;13.10;99.90
9265;DHT22;4669;49.594;10.958;2023-05-16T05:16:04;13.00;99.90
9265;DHT22;4669;49.594;10.958;2023-05-16T05:21:06;12.70;99.90
9265;DHT22;4669;49.594;10.958;2023-05-16T05:26:08;12.50;99.90
9265;DHT22;4669;49.594;10.958;2023-05-16T05:31:12;12.60;99.90
9265;DHT22;4669;49.594;10.958;2023-05-16T05:36:14;12.60;99.90
9265;DHT22;4669;49.594;10.958;2023-05-16T05:41:16;12.70;99.90
9265;DHT22;4669;49.594;10.958;2023-05-16T05:46:20;12.60;99.90
9265;DHT22;4669;49.594;10.958;2023-05-16T05:51:22;12.60;99.90
9265;DHT22;4669;49.594;10.958;2023-05-16T05:56:24;12.60;99.90
9265;DHT22;4669;49.594;10.958;2023-05-16T06:01:28;12.60;99.90
9265;DHT22;4669;49.594;10.958;2023-05-16T06:06:30;12.80;99.90
9265;DHT22;4669;49.594;10.958;2023-05-16T06:11:32;12.80;99.90
9265;DHT22;4669;49.594;10.958;2023-05-16T06:16:35;12.90;99.90
9265;DHT22;4669;49.594;10.958;2023-05-16T06:21:39;12.90;99.90
9265;DHT22;4669;49.594;10.958;2023-05-16T06:26:41;13.00;99.90
9265;DHT22;4669;49.594;10.958;2023-05-16T06:31:47;13.20;99.90
9265;DHT22;4669;49.594;10.958;2023-05-16T06:36:49;13.40;99.90
9265;DHT22;4669;49.594;10.958;2023-05-16T06:41:51;13.60;99.90
9265;DHT22;4669;49.594;10.958;2023-05-16T06:46:56;13.70;99.90
9265;DHT22;4669;49.594;10.958;2023-05-16T06:51:58;13.70;99.90
9265;DHT22;4669;49.594;10.958;2023-05-16T06:57:00;13.80;99.90
9265;DHT22;4669;49.594;10.958;2023-05-16T07:02:05;13.90;99.90
9265;DHT22;4669;49.594;10.958;2023-05-16T07:07:07;13.70;99.90
9265;DHT22;4669;49.594;10.958;2023-05-16T07:12:09;13.80;99.90
9265;DHT22;4669;49.594;10.958;2023-05-16T07:17:12;13.90;99.90
9265;DHT22;4669;49.594;10.958;2023-05-16T07:22:15;13.90;99.90
9265;DHT22;4669;49.594;10.958;2023-05-16T07:27:17;13.90;99.90
9265;DHT22;4669;49.594;10.958;2023-05-16T07:32:20;14.00;99.90
9265;DHT22;4669;49.594;10.958;2023-05-16T07:37:22;14.10;99.90
9265;DHT22;4669;49.594;10.958;2023-05-16T07:42:24;14.30;99.90
9265;DHT22;4669;49.594;10.958;2023-05-16T07:47:28;14.40;99.90
9265;DHT22;4669;49.594;10.958;2023-05-16T07:52:30;14.60;99.90
9265;DHT22;4669;49.594;10.958;2023-05-16T07:57:32;14.70;99.90
9265;DHT22;4669;49.594;10.958;2023-05-16T08:02:35;14.60;99.90
9265;DHT22;4669;49.594;10.958;2023-05-16T08:07:37;14.60;99.90
9265;DHT22;4669;49.594;10.958;2023-05-16T08:12:39;14.60;99.90
9265;DHT22;4669;49.594;10.958;2023-05-16T08:17:43;14.80;99.90
9265;DHT22;4669;49.594;10.958;2023-05-16T08:22:45;14.90;99.90
9265;DHT22;4669;49.594;10.958;2023-05-16T08:27:48;14.90;99.90
9265;DHT22;4669;49.594;10.958;2023-05-16T08:32:52;14.90;99.90
9265;DHT22;4669;49.594;10.958;2023-05-16T08:37:54;14.90;99.90
9265;DHT22;4669;49.594;10.958;2023-05-16T08:42:56;14.80;99.90
9265;DHT22;4669;49.594;10.958;2023-05-16T08:48:00;14.80;99.90
9265;DHT22;4669;49.594;10.958;2023-05-16T08:53:05;14.70;99.90
9265;DHT22;4669;49.594;10.958;2023-05-16T08:58:08;14.80;99.90
9265;DHT22;4669;49.594;10.958;2023-05-16T09:03:11;14.70;99.90
9265;DHT22;4669;49.594;10.958;2023-05-16T09:08:13;14.70;99.90
9265;DHT22;4669;49.594;10.958;2023-05-16T09:13:15;14.70;99.90
9265;DHT22;4669;49.594;10.958;2023-05-16T09:18:20;14.40;99.90
9265;DHT22;4669;49.594;10.958;2023-05-16T09:23:23;14.30;99.90
9265;DHT22;4669;49.594;10.958;2023-05-16T09:28:25;14.20;99.90
9265;DHT22;4669;49.594;10.958;2023-05-16T09:33:29;14.20;99.90
9265;DHT22;4669;49.594;10.958;2023-05-16T09:38:31;14.30;99.90
9265;DHT22;4669;49.594;10.958;2023-05-16T09:43:37;14.30;99.90
9265;DHT22;4669;49.594;10.958;2023-05-16T09:48:44;14.30;99.90
9265;DHT22;4669;49.594;10.958;2023-05-16T09:53:47;14.40;99.90
9265;DHT22;4669;49.594;10.958;2023-05-16T09:58:51;14.40;99.90
9265;DHT22;4669;49.594;10.958;2023-05-16T10:03:54;14.40;99.90
9265;DHT22;4669;49.594;10.958;2023-05-16T10:08:56;14.60;99.90
9265;DHT22;4669;49.594;10.958;2023-05-16T10:13:59;14.70;99.90
9265;DHT22;4669;49.594;10.958;2023-05-16T10:19:03;14.80;99.90
9265;DHT22;4669;49.594;10.958;2023-05-16T10:24:06;15.00;99.90
9265;DHT22;4669;49.594;10.958;2023-05-16T10:29:12;15.00;99.90
9265;DHT22;4669;49.594;10.958;2023-05-16T10:34:17;14.90;99.90
9265;DHT22;4669;49.594;10.958;2023-05-16T10:39:19;15.00;99.90
9265;DHT22;4669;49.594;10.958;2023-05-16T10:44:21;15.20;99.90
9265;DHT22;4669;49.594;10.958;2023-05-16T10:49:26;15.20;99.90
9265;DHT22;4669;49.594;10.958;2023-05-16T10:54:34;15.50;99.90
9265;DHT22;4669;49.594;10.958;2023-05-16T10:59:43;15.80;99.90
9265;DHT22;4669;49.594;10.958;2023-05-16T11:04:47;16.00;99.90
9265;DHT22;4669;49.594;10.958;2023-05-16T11:10:07;16.00;99.90
9265;DHT22;4669;49.594;10.958;2023-05-16T11:15:24;16.20;99.90
9265;DHT22;4669;49.594;10.958;2023-05-16T11:20:29;16.40;99.70
9265;DHT22;4669;49.594;10.958;2023-05-16T11:25:35;16.40;99.90
9265;DHT22;4669;49.594;10.958;2023-05-16T11:30:42;16.20;99.70
9265;DHT22;4669;49.594;10.958;2023-05-16T11:36:00;15.90;99.90
9265;DHT22;4669;49.594;10.958;2023-05-16T11:41:04;16.00;99.90
9265;DHT22;4669;49.594;10.958;2023-05-16T11:46:09;16.10;99.70
9265;DHT22;4669;49.594;10.958;2023-05-16T11:51:13;16.20;99.40
9265;DHT22;4669;49.594;10.958;2023-05-16T11:56:19;16.20;99.90
9265;DHT22;4669;49.594;10.958;2023-05-16T12:01:21;16.20;99.80
9265;DHT22;4669;49.594;10.958;2023-05-16T12:06:25;16.10;99.90
9265;DHT22;4669;49.594;10.958;2023-05-16T12:11:29;16.10;99.90
9265;DHT22;4669;49.594;10.958;2023-05-16T12:16:32;16.10;99.70
9265;DHT22;4669;49.594;10.958;2023-05-16T12:21:37;15.80;99.90
9265;DHT22;4669;49.594;10.958;2023-05-16T12:26:39;16.00;99.70
9265;DHT22;4669;49.594;10.958;2023-05-16T12:31:44;16.00;99.40
9265;DHT22;4669;49.594;10.958;2023-05-16T12:36:51;16.20;99.00
9265;DHT22;4669;49.594;10.958;2023-05-16T12:41:54;16.30;98.60
9265;DHT22;4669;49.594;10.958;2023-05-16T12:46:56;16.20;98.20
9265;DHT22;4669;49.594;10.958;2023-05-16T12:52:00;16.20;98.70
9265;DHT22;4669;49.594;10.958;2023-05-16T12:57:05;16.60;97.50
9265;DHT22;4669;49.594;10.958;2023-05-16T13:02:09;16.70;97.90
9265;DHT22;4669;49.594;10.958;2023-05-16T13:07:13;16.50;98.20
9265;DHT22;4669;49.594;10.958;2023-05-16T13:12:17;16.60;97.40
9265;DHT22;4669;49.594;10.958;2023-05-16T13:17:19;16.30;98.00
9265;DHT22;4669;49.594;10.958;2023-05-16T13:22:22;16.10;97.90
9265;DHT22;4669;49.594;10.958;2023-05-16T13:27:24;16.00;98.30
9265;DHT22;4669;49.594;10.958;2023-05-16T13:32:26;15.90;98.00
9265;DHT22;4669;49.594;10.958;2023-05-16T13:37:30;16.20;97.90
9265;DHT22;4669;49.594;10.958;2023-05-16T13:42:32;16.30;96.40
9265;DHT22;4669;49.594;10.958;2023-05-16T13:47:34;16.40;96.20
9265;DHT22;4669;49.594;10.958;2023-05-16T13:52:38;16.30;96.90
9265;DHT22;4669;49.594;10.958;2023-05-16T13:57:40;16.10;97.20
9265;DHT22;4669;49.594;10.958;2023-05-16T14:02:42;16.10;97.00
9265;DHT22;4669;49.594;10.958;2023-05-16T14:07:45;16.10;97.10
9265;DHT22;4669;49.594;10.958;2023-05-16T14:12:47;16.30;96.40
9265;DHT22;4669;49.594;10.958;2023-05-16T14:17:49;16.30;96.80
9265;DHT22;4669;49.594;10.958;2023-05-16T14:22:53;16.40;96.60
9265;DHT22;4669;49.594;10.958;2023-05-16T14:27:55;16.50;96.30
9265;DHT22;4669;49.594;10.958;2023-05-16T14:32:57;16.70;96.70
9265;DHT22;4669;49.594;10.958;2023-05-16T14:38:00;16.50;95.90
9265;DHT22;4669;49.594;10.958;2023-05-16T14:43:02;16.50;96.00
9265;DHT22;4669;49.594;10.958;2023-05-16T14:48:05;16.20;96.30
9265;DHT22;4669;49.594;10.958;2023-05-16T14:53:08;16.20;96.40
9265;DHT22;4669;49.594;10.958;2023-05-16T14:58:10;16.30;96.70
9265;DHT22;4669;49.594;10.958;2023-05-16T15:03:12;16.40;96.70
9265;DHT22;4669;49.594;10.958;2023-05-16T15:08:16;16.20;96.10
9265;DHT22;4669;49.594;10.958;2023-05-16T15:13:18;16.10;96.50
9265;DHT22;4669;49.594;10.958;2023-05-16T15:18:20;15.80;96.40
9265;DHT22;4669;49.594;10.958;2023-05-16T15:23:23;15.70;96.80
9265;DHT22;4669;49.594;10.958;2023-05-16T15:28:25;15.40;97.00
9265;DHT22;4669;49.594;10.958;2023-05-16T15:33:27;15.20;97.30
9265;DHT22;4669;49.594;10.958;2023-05-16T15:38:31;15.00;97.40
9265;DHT22;4669;49.594;10.958;2023-05-16T15:43:33;15.00;96.80
9265;DHT22;4669;49.594;10.958;2023-05-16T15:48:36;14.90;97.50
9265;DHT22;4669;49.594;10.958;2023-05-16T15:53:43;14.80;97.30
9265;DHT22;4669;49.594;10.958;2023-05-16T15:58:45;14.70;97.30
9265;DHT22;4669;49.594;10.958;2023-05-16T16:03:47;14.50;97.90
9265;DHT22;4669;49.594;10.958;2023-05-16T16:08:51;14.50;98.10
9265;DHT22;4669;49.594;10.958;2023-05-16T16:13:53;14.40;98.00
9265;DHT22;4669;49.594;10.958;2023-05-16T16:18:55;14.30;98.10
9265;DHT22;4669;49.594;10.958;2023-05-16T16:23:58;14.30;98.30
9265;DHT22;4669;49.594;10.958;2023-05-16T16:29:00;14.30;98.30
9265;DHT22;4669;49.594;10.958;2023-05-16T16:34:03;14.20;98.20
9265;DHT22;4669;49.594;10.958;2023-05-16T16:39:07;14.10;98.50
9265;DHT22;4669;49.594;10.958;2023-05-16T16:44:09;14.20;98.60
9265;DHT22;4669;49.594;10.958;2023-05-16T16:49:12;14.30;98.60
9265;DHT22;4669;49.594;10.958;2023-05-16T16:54:15;14.30;98.10
9265;DHT22;4669;49.594;10.958;2023-05-16T16:59:17;14.40;98.20
9265;DHT22;4669;49.594;10.958;2023-05-16T17:04:19;14.30;97.60
9265;DHT22;4669;49.594;10.958;2023-05-16T17:09:23;14.30;97.50
9265;DHT22;4669;49.594;10.958;2023-05-16T17:14:26;14.30;97.50
9265;DHT22;4669;49.594;10.958;2023-05-16T17:19:28;14.20;97.20
9265;DHT22;4669;49.594;10.958;2023-05-16T17:24:32;14.30;97.20
9265;DHT22;4669;49.594;10.958;2023-05-16T17:29:35;14.30;97.00
9265;DHT22;4669;49.594;10.958;2023-05-16T17:34:38;14.10;97.30
9265;DHT22;4669;49.594;10.958;2023-05-16T17:39:41;14.10;97.40
9265;DHT22;4669;49.594;10.958;2023-05-16T17:44:43;14.20;97.20
9265;DHT22;4669;49.594;10.958;2023-05-16T17:49:45;14.20;96.80
9265;DHT22;4669;49.594;10.958;2023-05-16T17:54:49;14.10;96.80
9265;DHT22;4669;49.594;10.958;2023-05-16T17:59:51;14.10;97.00
9265;DHT22;4669;49.594;10.958;2023-05-16T18:04:53;14.10;96.90
9265;DHT22;4669;49.594;10.958;2023-05-16T18:09:56;14.10;96.60
9265;DHT22;4669;49.594;10.958;2023-05-16T18:14:58;14.00;96.70
9265;DHT22;4669;49.594;10.958;2023-05-16T18:20:01;14.00;96.90
9265;DHT22;4669;49.594;10.958;2023-05-16T18:25:10;14.00;96.40
9265;DHT22;4669;49.594;10.958;2023-05-16T18:30:12;14.00;96.20
9265;DHT22;4669;49.594;10.958;2023-05-16T18:35:15;14.00;95.80
9265;DHT22;4669;49.594;10.958;2023-05-16T18:40:19;13.90;95.30
9265;DHT22;4669;49.594;10.958;2023-05-16T18:45:21;14.00;94.90
9265;DHT22;4669;49.594;10.958;2023-05-16T18:50:23;13.80;94.80
9265;DHT22;4669;49.594;10.958;2023-05-16T18:55:27;13.80;94.50
9265;DHT22;4669;49.594;10.958;2023-05-16T19:00:29;13.70;94.80
9265;DHT22;4669;49.594;10.958;2023-05-16T19:05:31;13.50;94.80
9265;DHT22;4669;49.594;10.958;2023-05-16T19:10:35;13.40;95.00
9265;DHT22;4669;49.594;10.958;2023-05-16T19:15:41;13.40;94.70
9265;DHT22;4669;49.594;10.958;2023-05-16T19:20:43;13.40;94.70
9265;DHT22;4669;49.594;10.958;2023-05-16T19:25:46;13.30;94.00
9265;DHT22;4669;49.594;10.958;2023-05-16T19:30:48;13.20;93.70
9265;DHT22;4669;49.594;10.958;2023-05-16T19:35:50;13.00;93.60
9265;DHT22;4669;49.594;10.958;2023-05-16T19:40:54;13.00;93.80
9265;DHT22;4669;49.594;10.958;2023-05-16T19:45:56;12.90;93.50
9265;DHT22;4669;49.594;10.958;2023-05-16T19:50:58;12.90;93.30
9265;DHT22;4669;49.594;10.958;2023-05-16T19:56:02;12.70;93.80
9265;DHT22;4669;49.594;10.958;2023-05-16T20:01:04;12.60;94.20
9265;DHT22;4669;49.594;10.958;2023-05-16T20:06:06;12.60;94.00
9265;DHT22;4669;49.594;10.958;2023-05-16T20:11:10;12.50;93.70
9265;DHT22;4669;49.594;10.958;2023-05-16T20:16:12;12.50;93.50
9265;DHT22;4669;49.594;10.958;2023-05-16T20:21:14;12.50;93.10
9265;DHT22;4669;49.594;10.958;2023-05-16T20:26:18;12.50;92.40
9265;DHT22;4669;49.594;10.958;2023-05-16T20:31:21;12.40;92.20
9265;DHT22;4669;49.594;10.958;2023-05-16T20:36:23;12.40;92.10
9265;DHT22;4669;49.594;10.958;2023-05-16T20:41:26;12.40;92.00
9265;DHT22;4669;49.594;10.958;2023-05-16T20:46:28;12.40;92.10
9265;DHT22;4669;49.594;10.958;2023-05-16T20:51:30;12.40;92.10
9265;DHT22;4669;49.594;10.958;2023-05-16T20:56:34;12.40;92.40
9265;DHT22;4669;49.594;10.958;2023-05-16T21:01:36;12.40;92.60
9265;DHT22;4669;49.594;10.958;2023-05-16T21:06:38;12.30;93.10
9265;DHT22;4669;49.594;10.958;2023-05-16T21:11:41;12.30;93.20
9265;DHT22;4669;49.594;10.958;2023-05-16T21:16:43;12.30;92.10
9265;DHT22;4669;49.594;10.958;2023-05-16T21:21:45;12.10;91.90
9265;DHT22;4669;49.594;10.958;2023-05-16T21:26:48;11.90;92.10
9265;DHT22;4669;49.594;10.958;2023-05-16T21:31:50;11.80;92.60
9265;DHT22;4669;49.594;10.958;2023-05-16T21:36:52;11.90;92.30
9265;DHT22;4669;49.594;10.958;2023-05-16T21:41:56;11.80;92.20
9265;DHT22;4669;49.594;10.958;2023-05-16T21:46:58;11.70;92.60
9265;DHT22;4669;49.594;10.958;2023-05-16T21:52:01;11.60;92.90
9265;DHT22;4669;49.594;10.958;2023-05-16T21:57:04;11.50;93.20
